Terminal Aerodrome Forecast
Issued by NWS Cleveland, OH

Home | Current Version | Previous Version | Text Only | Print | Product List | Glossary On
Versions: 1 2 3 4 5 6 7 8 9 10 11 12 13
029
FTUS41 KCLE 230541
TAFERI
TAF
KERI 230541Z 2306/2406 16015G22KT P6SM BKN200
     FM231600 16018G30KT P6SM BKN070 OVC200
     FM232000 14025G36KT P6SM BKN035 OVC070
     FM240000 17022G32KT P6SM -SHRA OVC035=

USA.gov is the U.S. government's official web portal to all federal, state and local government web resources and services.